Time;durP1;ratioP1;P1;durP2;ratioP2;P2;SDS_P1;SDS_P2;PMS_P1;PMS_P2;Temp;Humidity;BMP_temperature;BMP_pressure;BME280_temperature;BME280_humidity;BME280_pressure;Samples;Min_cycle;Max_cycle;Signal;HPM_P1;HPM_P2
2023/06/18 00:01:41;;;;;;;12.40;6.50;;;;;;;15.19;100.00;100618.46;105607;1254;72693;-43
2023/06/18 00:04:08;;;;;;;14.20;6.60;;;;;;;15.13;100.00;100617.81;105515;1262;60360;-44
2023/06/18 00:06:36;;;;;;;10.00;6.90;;;;;;;15.07;100.00;100620.11;105403;1260;60394;-48
2023/06/18 00:09:05;;;;;;;10.20;6.40;;;;;;;15.01;100.00;100622.39;105620;1256;73813;-43
2023/06/18 00:11:33;;;;;;;7.50;6.30;;;;;;;14.96;100.00;100626.20;105640;1260;64542;-42
2023/06/18 00:14:00;;;;;;;8.30;6.50;;;;;;;14.92;100.00;100628.77;105633;1258;71036;-42
2023/06/18 00:16:28;;;;;;;15.00;6.80;;;;;;;14.88;100.00;100626.46;105596;1258;61688;-42
2023/06/18 00:18:56;;;;;;;15.70;7.00;;;;;;;14.85;100.00;100629.86;105622;1260;60485;-42
2023/06/18 00:21:24;;;;;;;17.30;6.60;;;;;;;14.80;100.00;100631.25;105668;1256;73806;-42
2023/06/18 00:23:52;;;;;;;15.80;6.80;;;;;;;14.76;100.00;100624.77;105597;1260;64035;-42
2023/06/18 00:26:20;;;;;;;7.60;6.70;;;;;;;14.73;100.00;100623.85;105585;1258;71374;-42
2023/06/18 00:28:48;;;;;;;10.10;6.60;;;;;;;14.67;100.00;100621.89;105593;1262;61673;-42
2023/06/18 00:31:15;;;;;;;10.70;6.70;;;;;;;14.62;100.00;100616.51;105625;1254;60338;-42
2023/06/18 00:33:44;;;;;;;8.10;7.30;;;;;;;14.58;100.00;100622.36;105662;1256;72581;-42
2023/06/18 00:36:12;;;;;;;9.80;6.60;;;;;;;14.55;100.00;100627.16;105622;1257;65356;-42
2023/06/18 00:38:45;;;;;;;15.20;6.40;;;;;;;14.51;100.00;100616.67;105657;1256;71443;-42
2023/06/18 00:41:13;;;;;;;10.60;6.80;;;;;;;14.47;100.00;100620.30;105591;1261;61400;-43
2023/06/18 00:43:41;;;;;;;11.50;6.50;;;;;;;14.42;100.00;100615.45;105577;1262;60451;-42
2023/06/18 00:46:09;;;;;;;11.20;6.70;;;;;;;14.37;100.00;100614.36;105625;1254;72616;-42
2023/06/18 00:48:40;;;;;;;9.20;7.00;;;;;;;14.34;100.00;100610.98;105654;1254;65321;-42
2023/06/18 00:51:08;;;;;;;11.60;6.60;;;;;;;14.34;100.00;100607.34;105685;1261;71645;-43
2023/06/18 00:53:37;;;;;;;7.70;6.50;;;;;;;14.33;100.00;100605.63;105592;1261;61619;-43
2023/06/18 00:56:04;;;;;;;8.10;7.20;;;;;;;14.32;100.00;100595.09;105652;1261;60390;-43
2023/06/18 00:58:33;;;;;;;14.60;6.60;;;;;;;14.31;100.00;100591.64;105602;1260;72598;-43
2023/06/18 01:01:02;;;;;;;7.00;6.30;;;;;;;14.30;100.00;100589.75;105610;1259;65134;-42
2023/06/18 01:03:32;;;;;;;10.70;6.50;;;;;;;14.31;100.00;100577.56;105662;1259;71407;-43
2023/06/18 01:06:01;;;;;;;14.70;6.70;;;;;;;14.32;100.00;100567.64;105638;1260;60560;-42
2023/06/18 01:08:33;;;;;;;10.80;6.20;;;;;;;14.32;100.00;100557.39;105658;1260;60373;-42
2023/06/18 01:11:03;;;;;;;8.80;7.10;;;;;;;14.31;100.00;100550.85;105683;1256;72628;-42
2023/06/18 01:13:32;;;;;;;11.80;7.10;;;;;;;14.29;100.00;100545.71;105644;1260;65278;-42
2023/06/18 01:16:03;;;;;;;8.80;6.60;;;;;;;14.28;100.00;100540.52;105661;1260;72605;-42
2023/06/18 01:18:51;;;;;;;10.10;6.90;;;;;;;14.27;100.00;100536.91;105607;1256;60536;-42
2023/06/18 01:21:21;;;;;;;10.10;5.80;;;;;;;14.24;100.00;100536.83;105666;1259;60392;-42
2023/06/18 01:23:52;;;;;;;14.50;6.30;;;;;;;14.22;100.00;100534.99;105717;1259;73845;-42
2023/06/18 01:26:20;;;;;;;8.30;5.90;;;;;;;14.19;100.00;100531.10;105672;1259;65254;-43
2023/06/18 01:28:51;;;;;;;16.50;6.70;;;;;;;14.16;100.00;100533.80;105635;1259;72416;-42
2023/06/18 01:31:22;;;;;;;7.30;6.60;;;;;;;14.13;100.00;100533.38;105637;1259;60539;-42
2023/06/18 01:33:53;;;;;;;13.70;6.40;;;;;;;14.09;100.00;100530.36;105639;1260;60436;-42
2023/06/18 01:36:34;;;;;;;15.00;6.80;;;;;;;14.06;100.00;100533.08;105653;1261;73922;-42
2023/06/18 01:39:07;;;;;;;9.60;6.70;;;;;;;14.05;100.00;100534.30;105612;1262;64329;-42
2023/06/18 01:41:36;;;;;;;12.80;7.00;;;;;;;14.04;100.00;100537.13;105676;1256;72669;-43
2023/06/18 01:44:06;;;;;;;8.30;7.30;;;;;;;14.02;100.00;100538.21;105637;1260;60392;-42
2023/06/18 01:46:34;;;;;;;9.90;7.40;;;;;;;14.00;100.00;100540.20;105626;1256;60339;-42
2023/06/18 01:49:04;;;;;;;12.90;7.00;;;;;;;13.98;100.00;100546.50;105633;1259;73879;-42
2023/06/18 01:51:32;;;;;;;9.40;6.90;;;;;;;13.96;100.00;100543.27;105600;1260;65257;-42
2023/06/18 01:54:02;;;;;;;12.60;6.70;;;;;;;13.94;100.00;100544.54;105483;1261;72277;-42
2023/06/18 01:56:29;;;;;;;8.40;6.90;;;;;;;13.94;100.00;100547.51;105577;1256;60684;-42
2023/06/18 01:58:57;;;;;;;8.20;6.60;;;;;;;13.93;100.00;100546.64;105326;1256;220519;-43
2023/06/18 02:02:52;;;;;;;8.80;7.00;;;;;;;13.97;100.00;100578.29;102748;1294;600798;-43
2023/06/18 02:05:21;;;;;;;8.00;7.20;;;;;;;13.97;100.00;100557.64;104815;1264;61823;-43
2023/06/18 02:07:49;;;;;;;7.40;6.70;;;;;;;14.00;100.00;100558.75;104798;1264;60132;-43
2023/06/18 02:10:17;;;;;;;9.50;6.50;;;;;;;14.05;100.00;100561.91;104862;1269;71013;-43
2023/06/18 02:12:45;;;;;;;10.20;7.00;;;;;;;14.10;100.00;100562.98;104917;1273;65180;-43
2023/06/18 02:15:13;;;;;;;8.80;7.30;;;;;;;14.15;100.00;100567.33;104923;1273;72675;-43
2023/06/18 02:17:40;;;;;;;11.10;7.20;;;;;;;14.20;100.00;100568.38;105027;1270;222596;-42
2023/06/18 02:20:10;;;;;;;9.70;6.90;;;;;;;14.26;100.00;100575.83;105200;1267;59246;-43
2023/06/18 02:22:38;;;;;;;9.20;6.60;;;;;;;14.34;100.00;100571.39;105187;1267;72290;-43
2023/06/18 02:25:06;;;;;;;14.70;6.70;;;;;;;14.43;100.00;100571.80;105178;1263;63060;-43
2023/06/18 02:27:34;;;;;;;9.30;6.40;;;;;;;14.53;100.00;100570.64;105179;1269;72619;-43
2023/06/18 02:30:03;;;;;;;9.60;6.00;;;;;;;14.60;100.00;100559.27;105116;1268;61925;-43
2023/06/18 02:32:31;;;;;;;8.90;6.90;;;;;;;14.66;100.00;100559.79;105197;1267;60782;-43
2023/06/18 02:34:59;;;;;;;12.90;7.10;;;;;;;14.72;100.00;100558.90;104900;1264;71793;-43
2023/06/18 02:37:27;;;;;;;12.30;6.50;;;;;;;14.78;100.00;100553.84;104942;1269;65220;-42
2023/06/18 02:39:56;;;;;;;12.60;6.00;;;;;;;14.84;100.00;100556.44;105192;1267;72619;-46
2023/06/18 02:42:23;;;;;;;11.90;5.80;;;;;;;14.89;100.00;100565.27;105089;1270;60418;-43
2023/06/18 02:44:51;;;;;;;11.60;6.50;;;;;;;14.93;100.00;100564.77;105121;1262;59538;-41
2023/06/18 02:47:19;;;;;;;9.80;6.50;;;;;;;14.98;100.00;100575.56;104888;1264;73023;-41
2023/06/18 02:49:47;;;;;;;7.90;6.80;;;;;;;15.03;100.00;100580.96;104884;1269;63913;-42
2023/06/18 02:52:15;;;;;;;12.90;6.40;;;;;;;15.07;100.00;100584.29;104961;1268;71363;-43
2023/06/18 02:54:44;;;;;;;14.30;6.70;;;;;;;15.12;100.00;100597.67;105164;1270;61659;-42
2023/06/18 02:57:11;;;;;;;10.20;6.50;;;;;;;15.20;100.00;100611.98;105201;1267;60152;-42
2023/06/18 02:59:40;;;;;;;11.80;6.90;;;;;;;15.28;100.00;100617.10;104905;1269;73489;-42
2023/06/18 03:02:07;;;;;;;14.00;6.70;;;;;;;15.35;100.00;100627.64;104873;1270;65236;-42
2023/06/18 03:04:35;;;;;;;12.10;7.10;;;;;;;15.43;100.00;100639.69;104950;1270;72614;-42
2023/06/18 03:07:03;;;;;;;10.90;7.20;;;;;;;15.52;100.00;100649.46;104906;1269;60415;-42
2023/06/18 03:09:31;;;;;;;7.80;6.20;;;;;;;15.62;100.00;100663.89;105161;1264;60261;-42
2023/06/18 03:11:59;;;;;;;9.90;6.70;;;;;;;15.71;100.00;100669.14;105176;1269;72075;-42
2023/06/18 03:14:27;;;;;;;13.30;7.00;;;;;;;15.80;100.00;100678.92;105613;1257;65282;-42
2023/06/18 03:16:56;;;;;;;15.00;6.40;;;;;;;15.90;100.00;100687.11;105574;1257;71411;-42
2023/06/18 03:19:25;;;;;;;9.50;7.00;;;;;;;15.99;100.00;100693.20;105466;1259;59754;-42
2023/06/18 03:21:52;;;;;;;12.10;6.10;;;;;;;16.07;100.00;100701.09;105401;1257;59961;-42
2023/06/18 03:24:20;;;;;;;10.50;6.50;;;;;;;16.17;100.00;100708.73;105436;1257;72952;-42
2023/06/18 03:26:48;;;;;;;15.80;6.90;;;;;;;16.27;100.00;100715.83;105506;1263;65254;-42
2023/06/18 03:29:17;;;;;;;11.40;6.40;;;;;;;16.39;100.00;100715.20;105547;1262;70472;-42
2023/06/18 03:31:46;;;;;;;8.80;6.10;;;;;;;16.53;100.00;100721.13;105581;1258;60167;-42
2023/06/18 03:34:14;;;;;;;14.80;5.80;;;;;;;16.66;100.00;100721.64;105605;1262;60451;-43
2023/06/18 03:36:43;;;;;;;7.20;6.50;;;;;;;16.82;100.00;100717.73;105546;1263;73039;-42
2023/06/18 03:39:11;;;;;;;13.40;6.80;;;;;;;17.03;100.00;100710.23;105444;1263;65259;-43
2023/06/18 03:41:39;;;;;;;12.40;6.50;;;;;;;17.34;100.00;100701.81;105617;1262;70769;-43
2023/06/18 03:44:07;;;;;;;18.40;5.90;;;;;;;17.70;100.00;100689.81;105595;1259;60488;-42
2023/06/18 03:46:35;;;;;;;6.40;5.40;;;;;;;18.05;100.00;100652.13;105569;1262;60025;-43
2023/06/18 03:49:03;;;;;;;10.90;6.00;;;;;;;18.42;100.00;100603.23;105430;1264;71139;-43
2023/06/18 03:51:31;;;;;;;14.50;5.70;;;;;;;18.80;100.00;100511.68;105562;1258;64314;-43
2023/06/18 03:53:59;;;;;;;6.60;5.60;;;;;;;19.14;100.00;100396.27;105437;1263;71451;-43
2023/06/18 03:56:27;;;;;;;9.10;5.60;;;;;;;19.44;100.00;100255.14;105399;1264;59714;-43
2023/06/18 03:58:57;;;;;;;8.10;5.10;;;;;;;19.74;100.00;100094.96;105580;1257;60460;-43
2023/06/18 04:01:26;;;;;;;6.20;5.60;;;;;;;19.98;100.00;99967.97;105545;1258;72841;-43
2023/06/18 04:03:54;;;;;;;11.30;5.80;;;;;;;20.21;100.00;99903.79;105620;1257;65400;-43
2023/06/18 04:06:22;;;;;;;9.50;5.70;;;;;;;20.41;100.00;99881.06;105576;1257;72748;-42
2023/06/18 04:08:50;;;;;;;12.40;6.00;;;;;;;20.64;100.00;99868.06;105563;1261;59701;-44
2023/06/18 04:11:18;;;;;;;10.60;5.80;;;;;;;20.90;100.00;99860.69;105530;1257;60088;-43
2023/06/18 04:13:47;;;;;;;6.70;5.40;;;;;;;21.15;100.00;99871.86;105891;1251;73038;-43
2023/06/18 04:16:15;;;;;;;6.50;5.70;;;;;;;21.30;100.00;99901.20;105887;1251;64425;-43
2023/06/18 04:18:43;;;;;;;6.40;5.00;;;;;;;21.43;100.00;99925.90;105889;1254;71708;-43
2023/06/18 04:21:11;;;;;;;9.90;5.50;;;;;;;21.56;100.00;99958.77;105872;1254;59614;-43
2023/06/18 04:23:41;;;;;;;12.00;6.10;;;;;;;21.63;100.00;99988.99;105681;1259;59589;-43
2023/06/18 04:26:08;;;;;;;14.30;5.90;;;;;;;21.74;100.00;99994.23;105742;1260;73069;-44
2023/06/18 04:28:38;;;;;;;14.60;5.50;;;;;;;21.82;100.00;99994.67;105895;1251;63313;-44
2023/06/18 04:31:05;;;;;;;15.40;6.30;;;;;;;22.00;100.00;99991.66;105742;1260;71360;-44
2023/06/18 04:33:33;;;;;;;12.30;6.00;;;;;;;22.10;100.00;100003.92;105867;1256;59972;-44
2023/06/18 04:36:02;;;;;;;9.70;5.60;;;;;;;22.22;100.00;100013.60;105901;1251;59608;-44
2023/06/18 04:38:31;;;;;;;9.30;5.20;;;;;;;22.44;100.00;100006.67;105909;1257;71576;-44
2023/06/18 04:40:59;;;;;;;9.60;5.30;;;;;;;22.75;100.00;100001.21;105918;1251;63915;-44
2023/06/18 04:43:26;;;;;;;7.40;5.50;;;;;;;22.98;100.00;100021.60;105670;1260;71414;-43
2023/06/18 04:45:54;;;;;;;9.20;5.50;;;;;;;23.14;100.00;100056.59;105696;1258;60168;-44
2023/06/18 04:48:23;;;;;;;9.90;5.70;;;;;;;23.29;100.00;100093.89;105967;1257;59706;-44
2023/06/18 04:50:53;;;;;;;10.40;5.40;;;;;;;23.52;100.00;100112.88;105754;1260;72977;-44
2023/06/18 04:53:22;;;;;;;21.90;6.30;;;;;;;23.82;100.00;100152.79;105879;1251;64127;-44
2023/06/18 04:55:49;;;;;;;9.20;5.70;;;;;;;24.03;100.00;100187.94;105719;1257;72615;-44
2023/06/18 04:58:20;;;;;;;9.10;5.40;;;;;;;24.18;100.00;100215.71;105865;1252;59696;-44
2023/06/18 05:00:50;;;;;;;11.10;5.40;;;;;;;24.44;100.00;100220.48;105754;1257;59605;-50
2023/06/18 05:03:17;;;;;;;8.40;5.90;;;;;;;24.82;100.00;100213.41;105883;1256;73090;-44
2023/06/18 05:05:45;;;;;;;7.90;5.40;;;;;;;25.15;96.62;100202.25;105717;1251;65269;-44
2023/06/18 05:08:13;;;;;;;12.60;5.70;;;;;;;25.36;86.04;100213.36;105722;1258;72652;-46
2023/06/18 05:10:42;;;;;;;10.00;5.70;;;;;;;25.44;81.19;100235.98;105685;1257;60104;-44
2023/06/18 05:13:11;;;;;;;22.40;6.40;;;;;;;25.54;86.82;100260.42;105490;1260;60486;-47
2023/06/18 05:15:40;;;;;;;8.20;5.40;;;;;;;25.73;88.30;100264.83;105747;1253;73097;-44
2023/06/18 05:18:08;;;;;;;10.80;5.50;;;;;;;25.93;80.98;100235.20;105854;1256;64006;-44
2023/06/18 05:20:36;;;;;;;7.70;5.20;;;;;;;26.05;76.73;100241.61;105918;1256;71432;-44
2023/06/18 05:23:05;;;;;;;14.40;5.40;;;;;;;26.04;74.65;100242.92;105893;1251;60042;-44
2023/06/18 05:25:36;;;;;;;20.80;5.10;;;;;;;26.11;73.75;100251.55;105916;1256;59600;-44
2023/06/18 05:28:04;;;;;;;15.80;5.70;;;;;;;26.24;71.22;100236.98;105932;1251;72885;-44
2023/06/18 05:30:34;;;;;;;10.40;5.40;;;;;;;26.44;71.42;100254.72;105732;1259;65265;-44
2023/06/18 05:33:02;;;;;;;8.10;5.20;;;;;;;26.73;71.25;100258.87;105886;1254;71479;-44
2023/06/18 05:35:30;;;;;;;9.20;5.00;;;;;;;27.02;64.07;100142.28;105876;1251;59729;-44
2023/06/18 05:37:57;;;;;;;4.80;4.40;;;;;;;27.20;52.58;99745.23;105744;1254;59676;-43
2023/06/18 05:40:26;;;;;;;11.20;7.70;;;;;;;27.10;51.25;99759.85;105940;1251;71849;-43
2023/06/18 05:42:56;;;;;;;14.30;6.70;;;;;;;27.09;51.95;99890.61;105888;1251;64286;-43
2023/06/18 05:45:25;;;;;;;7.70;5.30;;;;;;;27.18;49.72;99731.23;105757;1257;72677;-44
2023/06/18 05:47:52;;;;;;;5.10;4.60;;;;;;;27.20;49.64;99751.95;105863;1256;60111;-43
2023/06/18 05:50:27;;;;;;;7.20;4.60;;;;;;;27.26;48.51;99692.07;105709;1251;59649;-43
2023/06/18 05:52:55;;;;;;;9.00;4.40;;;;;;;27.28;48.10;99700.36;105731;1251;73056;-43
2023/06/18 05:55:22;;;;;;;7.10;5.00;;;;;;;27.32;47.69;99685.41;105883;1251;63899;-43
2023/06/18 05:57:50;;;;;;;8.60;4.70;;;;;;;27.38;48.57;99772.84;105707;1256;71407;-43
2023/06/18 06:00:18;;;;;;;10.50;4.20;;;;;;;27.46;48.69;99820.36;105913;1257;60146;-44
2023/06/18 06:02:48;;;;;;;6.20;3.80;;;;;;;27.60;48.99;99853.27;105922;1257;59634;-43
2023/06/18 06:05:19;;;;;;;4.50;4.00;;;;;;;27.80;48.79;99869.48;105860;1257;72133;-43
2023/06/18 06:07:47;;;;;;;5.60;4.60;;;;;;;28.02;48.92;99878.58;105707;1257;63972;-44
2023/06/18 06:10:16;;;;;;;4.40;4.00;;;;;;;28.27;49.07;99906.65;105807;1254;71787;-44
2023/06/18 06:12:44;;;;;;;4.20;3.70;;;;;;;28.54;47.39;99742.86;105957;1254;60564;-44
2023/06/18 06:15:12;;;;;;;8.70;4.20;;;;;;;28.69;45.55;99535.36;105696;1258;60335;-44
2023/06/18 06:17:40;;;;;;;7.10;4.30;;;;;;;28.67;45.55;99545.68;105681;1251;72622;-44
2023/06/18 06:20:08;;;;;;;10.10;4.10;;;;;;;28.68;45.23;99557.42;105882;1251;63387;-43
2023/06/18 06:22:36;;;;;;;5.10;4.20;;;;;;;28.69;43.55;99380.26;105947;1256;71447;-44
2023/06/18 06:25:05;;;;;;;7.90;3.80;;;;;;;28.54;43.77;99424.34;105855;1253;60418;-43
2023/06/18 06:27:33;;;;;;;7.70;4.20;;;;;;;28.43;43.66;99453.65;105870;1251;60351;-44
2023/06/18 06:30:01;;;;;;;8.30;4.40;;;;;;;28.32;43.82;99471.79;105889;1251;72654;-43
2023/06/18 06:32:30;;;;;;;6.70;4.30;;;;;;;28.24;44.45;99564.88;105889;1251;64252;-43
2023/06/18 06:34:57;;;;;;;4.20;3.80;;;;;;;28.27;44.29;99553.95;105732;1260;72598;-43
2023/06/18 06:37:27;;;;;;;5.90;3.80;;;;;;;28.25;43.39;99470.73;105708;1254;60561;-43
2023/06/18 06:39:55;;;;;;;4.40;4.00;;;;;;;28.15;43.43;99494.06;105798;1256;60417;-43
2023/06/18 06:42:23;;;;;;;9.30;4.00;;;;;;;28.06;43.61;99507.10;105931;1251;73781;-43
2023/06/18 06:45:10;;;;;;;5.30;4.60;;;;;;;28.03;43.94;99570.28;105868;1251;63843;-44
2023/06/18 06:47:57;;;;;;;9.40;4.30;;;;;;;27.95;45.07;99723.71;105826;1251;72620;-44
2023/06/18 06:50:55;;;;;;;10.10;4.10;;;;;;;28.04;44.81;99730.57;105710;1251;60472;-43
2023/06/18 06:53:41;;;;;;;7.30;4.20;;;;;;;28.07;44.54;99678.63;105856;1254;60431;-43
2023/06/18 06:56:08;;;;;;;5.50;4.60;;;;;;;28.07;45.26;99780.91;105883;1251;72597;-43
2023/06/18 06:58:37;;;;;;;4.60;4.20;;;;;;;28.19;45.41;99803.86;105896;1251;64113;-43
2023/06/18 07:01:05;;;;;;;4.70;4.20;;;;;;;28.37;44.79;99732.04;105857;1254;71618;-43
2023/06/18 07:03:33;;;;;;;5.70;4.30;;;;;;;28.48;44.02;99602.20;105881;1251;60373;-44
2023/06/18 07:06:03;;;;;;;5.60;4.00;;;;;;;28.50;43.78;99580.52;105877;1251;60443;-44
2023/06/18 07:08:31;;;;;;;7.20;4.40;;;;;;;28.55;43.31;99539.24;105884;1256;72878;-44
2023/06/18 07:10:58;;;;;;;7.70;4.60;;;;;;;28.60;43.58;99578.19;105913;1253;63987;-44
2023/06/18 07:13:26;;;;;;;7.50;4.60;;;;;;;28.68;43.50;99602.38;105858;1254;72663;-44
2023/06/18 07:15:54;;;;;;;4.40;4.10;;;;;;;28.82;42.74;99461.42;105879;1254;60525;-44
2023/06/18 07:18:22;;;;;;;5.90;4.40;;;;;;;28.93;42.61;99437.77;105835;1256;60770;-44
2023/06/18 07:20:50;;;;;;;4.70;4.30;;;;;;;28.97;42.46;99457.45;105839;1251;73873;-44
2023/06/18 07:23:18;;;;;;;8.40;4.40;;;;;;;29.03;42.22;99418.97;105929;1251;63984;-44
2023/06/18 07:25:46;;;;;;;4.80;4.30;;;;;;;29.14;41.13;99306.95;105895;1251;72620;-42
2023/06/18 07:28:13;;;;;;;4.60;4.20;;;;;;;29.20;39.63;99096.27;105818;1254;60526;-44
2023/06/18 07:30:41;;;;;;;6.70;4.20;;;;;;;29.16;39.25;99015.48;109626;1251;61026;-44
2023/06/18 07:33:09;;;;;;;8.90;4.70;;;;;;;29.19;40.76;99212.35;109595;1251;72545;-43
2023/06/18 07:35:37;;;;;;;13.60;5.20;;;;;;;29.35;40.65;99246.08;109688;1251;63908;-43
2023/06/18 07:38:05;;;;;;;9.20;5.10;;;;;;;29.48;38.85;99039.61;109603;1251;71418;-44
2023/06/18 07:40:33;;;;;;;6.60;4.80;;;;;;;29.50;39.12;99038.38;109614;1253;60163;-44
2023/06/18 07:46:26;;;;;;;;;;;;;;;29.53;36.17;98631.48;102802;1290;600719;-47
2023/06/18 07:48:55;;;;;;;6.90;4.90;;;;;;;29.56;36.72;98682.20;104830;1264;59975;-43
2023/06/18 07:51:22;;;;;;;5.40;4.90;;;;;;;29.56;37.01;98726.35;105547;1263;60051;-48
2023/06/18 07:53:50;;;;;;;9.90;4.90;;;;;;;29.56;36.89;98722.62;105576;1258;71011;-44
2023/06/18 07:56:18;;;;;;;7.50;4.80;;;;;;;29.54;35.57;98544.65;105562;1257;64024;-44
2023/06/18 07:58:46;;;;;;;10.20;4.90;;;;;;;29.45;36.57;98663.49;105595;1262;71302;-44
2023/06/18 08:01:14;;;;;;;7.90;4.60;;;;;;;29.47;37.39;98817.30;105491;1257;230323;-44
2023/06/18 08:03:42;;;;;;;8.90;5.00;;;;;;;29.54;37.01;98745.16;105677;1260;59217;-44
2023/06/18 08:06:10;;;;;;;8.90;4.90;;;;;;;29.64;37.46;98833.80;105678;1260;70289;-43
2023/06/18 08:08:38;;;;;;;10.00;5.10;;;;;;;29.76;36.36;98716.69;105672;1254;64181;-44
2023/06/18 08:11:06;;;;;;;12.30;5.30;;;;;;;29.71;36.85;98742.21;105666;1254;70767;-44
2023/06/18 08:13:35;;;;;;;5.90;5.30;;;;;;;29.73;37.03;98775.68;105672;1260;60307;-44
2023/06/18 08:16:03;;;;;;;8.90;5.40;;;;;;;29.83;36.82;98775.63;105743;1260;59608;-43
2023/06/18 08:18:31;;;;;;;6.70;5.70;;;;;;;29.90;34.89;98537.18;105669;1254;72845;-44
2023/06/18 08:20:59;;;;;;;9.20;4.60;;;;;;;29.91;35.46;98542.20;105644;1257;63905;-44
2023/06/18 08:23:27;;;;;;;9.50;4.90;;;;;;;29.95;35.99;98599.56;105636;1260;72708;-44
2023/06/18 08:25:55;;;;;;;9.40;5.00;;;;;;;30.10;35.42;98600.61;105623;1260;60088;-43
2023/06/18 08:28:23;;;;;;;9.40;4.90;;;;;;;30.18;35.36;98535.93;105677;1254;59541;-44
2023/06/18 08:30:51;;;;;;;6.00;5.20;;;;;;;30.26;37.13;98739.75;105686;1254;71799;-44
2023/06/18 08:33:18;;;;;;;9.30;5.30;;;;;;;30.42;35.83;98665.27;105662;1254;63478;-43
2023/06/18 08:35:46;;;;;;;13.70;5.70;;;;;;;30.51;34.41;98455.58;105634;1259;71352;-44
2023/06/18 08:38:15;;;;;;;8.70;5.50;;;;;;;30.49;34.16;98396.70;105652;1260;59810;-43
2023/06/18 08:40:49;;;;;;;9.30;4.80;;;;;;;30.49;33.83;98332.18;105670;1260;59541;-44
2023/06/18 08:43:21;;;;;;;11.30;5.50;;;;;;;30.53;35.21;98491.42;105698;1260;71806;-44
2023/06/18 08:45:50;;;;;;;7.10;4.50;;;;;;;30.66;34.57;98441.45;105670;1256;64366;-44
2023/06/18 08:48:26;;;;;;;6.00;5.10;;;;;;;30.65;33.06;98231.55;105685;1255;72685;-43
2023/06/18 08:51:02;;;;;;;8.10;4.80;;;;;;;30.60;33.67;98290.77;105661;1260;59733;-42
2023/06/18 08:53:58;;;;;;;11.20;5.10;;;;;;;30.61;33.56;98301.27;105692;1269;59688;-42
2023/06/18 08:56:26;;;;;;;6.40;5.80;;;;;;;30.60;32.75;98200.98;105577;1260;72277;-43
2023/06/18 08:58:57;;;;;;;12.20;5.60;;;;;;;30.59;33.11;98211.41;105623;1255;64008;-43
2023/06/18 09:01:25;;;;;;;5.80;5.10;;;;;;;30.60;33.20;98268.64;105666;1260;72668;-42
2023/06/18 09:03:55;;;;;;;5.30;4.80;;;;;;;30.57;33.35;98273.16;105677;1260;59668;-43
2023/06/18 09:06:23;;;;;;;10.10;5.40;;;;;;;30.48;32.69;98180.99;105630;1263;59633;-44
2023/06/18 09:08:50;;;;;;;9.50;5.20;;;;;;;30.40;32.83;98189.36;105625;1261;71816;-45
2023/06/18 09:11:20;;;;;;;11.50;5.00;;;;;;;30.40;32.60;98162.85;105569;1262;64098;-44
2023/06/18 09:13:51;;;;;;;10.50;5.00;;;;;;;30.32;33.29;98263.15;105684;1260;72516;-44
2023/06/18 09:16:21;;;;;;;7.10;5.00;;;;;;;30.21;34.07;98345.20;105669;1260;60276;-45
2023/06/18 09:18:49;;;;;;;5.30;4.90;;;;;;;30.20;34.57;98448.36;105644;1260;59628;-44
2023/06/18 09:21:40;;;;;;;11.80;5.20;;;;;;;30.33;33.93;98385.20;105624;1261;71789;-44
2023/06/18 09:24:09;;;;;;;6.60;4.80;;;;;;;30.44;32.86;98259.33;105683;1260;64015;-44
2023/06/18 09:26:37;;;;;;;7.40;4.90;;;;;;;30.43;33.98;98362.03;105642;1260;72714;-44
2023/06/18 09:29:05;;;;;;;5.90;5.20;;;;;;;30.63;34.27;98436.58;105614;1260;59694;-44
2023/06/18 09:31:46;;;;;;;108.20;8.70;;;;;;;30.81;34.52;98436.50;105680;1259;59609;-44
2023/06/18 09:34:15;;;;;;;8.00;5.10;;;;;;;31.06;33.48;98327.66;105712;1260;71591;-44
2023/06/18 09:36:44;;;;;;;5.40;4.90;;;;;;;31.16;32.32;98167.14;105659;1260;65323;-42
2023/06/18 09:39:24;;;;;;;6.80;4.90;;;;;;;30.98;32.28;98140.25;105568;1263;71850;-44
2023/06/18 09:41:53;;;;;;;7.90;5.30;;;;;;;30.94;33.39;98274.69;105686;1258;59685;-43
2023/06/18 09:44:21;;;;;;;5.50;5.00;;;;;;;31.03;33.07;98266.88;105637;1257;59955;-43
2023/06/18 09:46:55;;;;;;;8.60;5.50;;;;;;;31.05;33.04;98235.39;105643;1259;72445;-42
2023/06/18 09:49:23;;;;;;;8.80;5.00;;;;;;;31.08;32.59;98205.33;105673;1260;63995;-43
2023/06/18 09:51:52;;;;;;;6.00;5.50;;;;;;;31.14;33.49;98299.68;105650;1257;71428;-43
2023/06/18 09:54:20;;;;;;;9.80;6.00;;;;;;;31.30;32.95;98250.28;105604;1261;60026;-43
2023/06/18 09:57:02;;;;;;;7.10;5.80;;;;;;;31.40;32.65;98214.52;105671;1259;59634;-43
2023/06/18 09:59:31;;;;;;;8.50;5.70;;;;;;;31.56;33.27;98292.89;105669;1258;71743;-44
2023/06/18 10:01:58;;;;;;;8.40;5.50;;;;;;;31.58;31.27;98057.88;105677;1261;63987;-45
2023/06/18 10:04:26;;;;;;;13.20;5.10;;;;;;;31.30;32.18;98120.33;105667;1259;71526;-42
2023/06/18 10:07:00;;;;;;;8.70;6.10;;;;;;;31.19;32.29;98131.10;105678;1259;59693;-43
2023/06/18 10:09:41;;;;;;;6.00;5.10;;;;;;;31.00;31.13;98057.05;105630;1260;59623;-42
2023/06/18 10:12:10;;;;;;;9.70;5.50;;;;;;;30.66;32.18;98129.42;105629;1260;72101;-43
2023/06/18 10:14:37;;;;;;;12.10;6.20;;;;;;;30.61;32.43;98193.38;105581;1257;63759;-45
2023/06/18 10:17:16;;;;;;;7.70;5.00;;;;;;;30.67;31.92;98159.48;105328;1261;71503;-44
2023/06/18 10:19:49;;;;;;;5.80;4.90;;;;;;;30.69;32.58;98198.04;105654;1260;59608;-46
2023/06/18 10:22:17;;;;;;;9.30;6.20;;;;;;;30.77;32.13;98192.64;105600;1255;59583;-43
2023/06/18 10:25:04;;;;;;;18.40;8.70;;;;;;;30.85;33.11;98272.86;105568;1257;73063;-43
2023/06/18 10:27:34;;;;;;;7.40;5.30;;;;;;;31.10;32.87;98285.32;105670;1256;64035;-42
2023/06/18 10:30:03;;;;;;;8.20;6.00;;;;;;;31.39;32.66;98253.99;105665;1261;72606;-43
2023/06/18 10:32:31;;;;;;;5.70;5.30;;;;;;;31.68;32.94;98273.21;105437;1260;60016;-43
2023/06/18 10:35:01;;;;;;;5.70;5.20;;;;;;;31.81;31.51;98127.52;105614;1263;59614;-43
2023/06/18 10:37:34;;;;;;;6.90;5.20;;;;;;;31.48;30.72;97978.23;105652;1260;71774;-43
2023/06/18 10:40:03;;;;;;;6.30;5.50;;;;;;;30.96;31.88;98100.08;105654;1260;63974;-43
2023/06/18 10:42:32;;;;;;;71.70;9.00;;;;;;;30.80;33.57;98313.58;105659;1257;73143;-43
2023/06/18 10:45:10;;;;;;;8.00;5.10;;;;;;;31.02;33.09;98320.04;105633;1257;59733;-42
2023/06/18 10:47:38;;;;;;;6.00;4.90;;;;;;;31.18;32.43;98233.90;105588;1257;59536;-44
2023/06/18 10:50:06;;;;;;;8.20;5.00;;;;;;;31.26;31.97;98177.81;105590;1260;73009;-43
2023/06/18 10:52:35;;;;;;;6.90;4.90;;;;;;;31.09;32.72;98275.34;105582;1256;65177;-43
2023/06/18 10:55:22;;;;;;;9.00;5.10;;;;;;;30.97;32.66;98273.69;105643;1260;72721;-44
2023/06/18 10:58:02;;;;;;;6.40;5.10;;;;;;;30.80;32.80;98278.17;105690;1260;59663;-43
2023/06/18 11:00:40;;;;;;;12.60;5.70;;;;;;;30.74;32.88;98318.02;105641;1260;59642;-43
2023/06/18 11:03:15;;;;;;;24.30;6.00;;;;;;;30.86;32.94;98333.76;105631;1255;71739;-43
2023/06/18 11:05:48;;;;;;;6.90;5.30;;;;;;;30.88;33.04;98341.92;105672;1258;63912;-43
2023/06/18 11:08:26;;;;;;;10.40;5.20;;;;;;;30.82;32.85;98336.31;105560;1260;71344;-45
2023/06/18 11:11:03;;;;;;;6.90;4.80;;;;;;;30.95;33.72;98420.94;105661;1260;59736;-45
2023/06/18 11:13:38;;;;;;;9.00;5.10;;;;;;;31.29;34.85;98536.36;105610;1262;59532;-44
2023/06/18 11:16:06;;;;;;;48.00;6.80;;;;;;;31.51;32.96;98379.23;105625;1256;73021;-45
2023/06/18 11:18:34;;;;;;;10.40;5.10;;;;;;;31.52;33.56;98419.48;105623;1262;65121;-44
2023/06/18 11:21:02;;;;;;;11.20;5.00;;;;;;;31.74;33.57;98434.98;105564;1255;72702;-43
2023/06/18 11:23:31;;;;;;;8.70;6.00;;;;;;;32.15;33.00;98381.20;105609;1260;59708;-43
2023/06/18 11:26:00;;;;;;;14.00;6.50;;;;;;;32.61;33.17;98350.80;105618;1263;59691;-43
2023/06/18 11:28:28;;;;;;;11.10;7.80;;;;;;;33.03;32.78;98317.76;105639;1260;73463;-43
2023/06/18 11:30:59;;;;;;;6.90;6.20;;;;;;;33.23;32.26;98239.15;105600;1258;64294;-43